0B4011 / YR-BAQ 7700 Squawk Report (10th of December, 2017)

Aircraft B734 Reg No. YR-BAQ Age 20 years old
Model 737 Jet engines 2 First flight 24-12-97
Registered 30-06-17 Rollout N/A Delivered 15-01-98
Construction No. 28702 Line No. 2978 Series 4D7
ADSHEX 4A0831 Airline name Blue Air Owner N/A
Airfield based Bucharest-Baneasa~ ~YR First tracked 2014-08-31 18:27:01

Flight history for YR-BAQ

Route Flight No Date Playback
Henri Coanda (OTP) - Helsinki Vantaa (HEL) 0B181 2018-07-20 08:11:00
Birmingham (BHX) - Henri Coanda (OTP) 0B152 2018-07-19 19:18:00
Henri Coanda (OTP) - Birmingham (BHX) 0B151 2018-07-19 15:49:00
Saint Exupery (LYS) - Henri Coanda (OTP) 0B110 2018-07-19 10:15:00
Henri Coanda (OTP) - Saint Exupery (LYS) 0B109 2018-07-19 06:41:00
???? 0B9232 2018-07-18 13:58:00
???? 0B9233 2018-07-18 12:05:00
Fiumicino (FCO) - Henri Coanda (OTP) 0B1016 2018-07-18 07:25:00
Henri Coanda (OTP) - Fiumicino (FCO) 0B1015 2018-07-18 05:24:00
Dublin (DUB) - Henri Coanda (OTP) 0B156 2018-07-17 12:09:00
Henri Coanda (OTP) - Dublin (DUB) 0B155 2018-07-17 09:45:00
Henri Coanda (OTP) - Helsinki Vantaa (HEL) 0B181 2018-07-15 18:21:00
Valencia (VLC) - Henri Coanda (OTP) 0B114 2018-07-14 20:37:00
Henri Coanda (OTP) - Valencia (VLC) 0B113 2018-07-14 16:05:00
???? 0B4 2018-07-14 12:01:00
Henri Coanda (OTP) - Luton (LTN) 0B131 2018-07-14 08:58:00
Helsinki Vantaa (HEL) - Henri Coanda (OTP) 0B182 2018-07-13 09:39:00
Brussels Airport (BRU) - Henri Coanda (OTP) 0B124 2018-07-12 19:18:00
Henri Coanda (OTP) - Brussels Airport (BRU) 0B123 2018-07-12 16:44:00
???? 0B4 2018-07-12 12:03:00
Time Lat Lon Altitude Heading Speed Vertical Rate
2017-12-10 09:42:22 GMT 51.16628 -0.06037 2,925 256 114 -480
2017-12-10 09:42:04 GMT 51.16859 -0.04406 3,100 256 115 -300
2017-12-10 09:41:55 GMT 51.16961 -0.03577 3,100 248 95 -540
2017-12-10 09:41:46 GMT 51.17109 -0.02733 3,175 262 135 -600
2017-12-10 09:41:36 GMT 51.17224 -0.01786 3,300 246 108 -600
2017-12-10 09:41:26 GMT 51.17356 -0.00821 3,425 253 120 -1560
2017-12-10 09:41:17 GMT 51.17447 -0.00010 3,600 260 147 -960
2017-12-10 09:41:06 GMT 51.17622 0.01162 3,850 218 103 -660
2017-12-10 09:40:55 GMT 51.17760 0.02202 3,850 251 147 -300
2017-12-10 09:40:47 GMT 51.17879 0.03065 4,000 262 97 -60
2017-12-10 09:40:36 GMT 51.18004 0.04163 4,100 233 95 -120
2017-12-10 09:40:26 GMT 51.18159 0.05130 4,125 258 184 60
2017-12-10 09:40:16 GMT 51.18312 0.06187 4,125 256 137 60
2017-12-10 09:40:05 GMT 51.18476 0.07270 4,100 271 272 0
2017-12-10 09:39:54 GMT 51.18629 0.08582 4,100 252 167 0
2017-12-10 09:39:47 GMT 51.18753 0.09387 4,100 271 125 -300
2017-12-10 09:39:37 GMT 51.18868 0.10482 4,100 250 212 -960
2017-12-10 09:39:25 GMT 51.19103 0.11969 4,175 259 233 -180
2017-12-10 09:39:16 GMT 51.19272 0.13175 4,300 276 104 -240
2017-12-10 09:39:06 GMT 51.19402 0.14321 4,350 234 130 -300
2017-12-10 09:38:57 GMT 51.19582 0.15406 4,425 260 215 -300
2017-12-10 09:38:46 GMT 51.19773 0.16864 4,500 244 139 -180
2017-12-10 09:38:37 GMT 51.19903 0.17916 4,500 232 143 -360
2017-12-10 09:38:27 GMT 51.20086 0.19129 4,550 261 167 -240
2017-12-10 09:38:17 GMT 51.20251 0.20381 4,625 258 169 -720
2017-12-10 09:38:06 GMT 51.20454 0.21733 4,700 262 206 -480
2017-12-10 09:37:56 GMT 51.20559 0.23025 4,825 251 188 -360
2017-12-10 09:37:46 GMT 51.20694 0.24250 4,900 255 203 -600
2017-12-10 09:37:36 GMT 51.20820 0.25524 5,050 254 201 -420
2017-12-10 09:37:26 GMT 51.21000 0.26816 5,050 261 168 -240
2017-12-10 09:37:16 GMT 51.21016 0.28082 5,150 246 185 -300
2017-12-10 09:37:05 GMT 51.21283 0.29315 5,250 233 111 -840
2017-12-10 09:36:57 GMT 51.21469 0.30403 5,350 267 155 -360
2017-12-10 09:36:46 GMT 51.21665 0.31721 5,450 250 205 -600
2017-12-10 09:36:35 GMT 51.21913 0.33020 5,600 246 198 -300
2017-12-10 09:36:25 GMT 51.22130 0.34239 5,600 240 216 -480
2017-12-10 09:36:15 GMT 51.22483 0.35407 5,675 263 146 -480
2017-12-10 09:35:55 GMT 51.23094 0.37798 5,875 296 267 -360
2017-12-10 09:35:47 GMT 51.23252 0.38817 5,975 232 182 -1080
2017-12-10 09:35:34 GMT 51.23918 0.40197 6,300 265 282 60
2017-12-10 09:35:27 GMT 51.24255 0.40879 6,300 231 177 -660
2017-12-10 09:35:13 GMT 51.25041 0.42277 6,275 246 253 -780
2017-12-10 09:35:06 GMT 51.25542 0.43355 6,500 276 429 -660
2017-12-10 09:34:33 GMT 51.27595 0.49087 7,150 104 231 -60
2017-12-10 09:34:26 GMT 51.27783 0.47926 7,150 132 486 -420
2017-12-10 09:34:15 GMT 51.28731 0.47862 7,050 208 208 -480
2017-12-10 09:34:05 GMT 51.29280 0.48968 7,175 196 214 -300
2017-12-10 09:33:57 GMT 51.29995 0.49509 7,325 259 136 -420
2017-12-10 09:33:47 GMT 51.30801 0.50170 7,425 211 288 -660
2017-12-10 09:33:36 GMT 51.31944 0.50557 7,575 199 207 -780
2017-12-10 09:33:27 GMT 51.32760 0.51014 7,575 203 210 -720
2017-12-10 09:33:16 GMT 51.33793 0.51548 7,750 197 221 -900
2017-12-10 09:33:07 GMT 51.34720 0.51885 7,925 205 189 -1980
2017-12-10 09:32:54 GMT 51.36035 0.53078 8,175 179 200 -3000
2017-12-10 09:32:45 GMT 51.36871 0.53072 8,425 199 234 -1800
2017-12-10 09:32:36 GMT 51.37793 0.53582 8,825 185 219 -840
2017-12-10 09:32:28 GMT 51.38601 0.53712 8,825 178 260 0
2017-12-10 09:32:17 GMT 51.39817 0.53767 9,000 176 253 0
2017-12-10 09:32:09 GMT 51.40754 0.53683 9,000 169 242 0
2017-12-10 09:31:58 GMT 51.41948 0.53231 9,000 173 239 0
2017-12-10 09:31:46 GMT 51.43287 0.53002 9,000 172 235 -60
2017-12-10 09:31:37 GMT 51.44261 0.52803 9,025 180 250 60
2017-12-10 09:31:27 GMT 51.45418 0.52815 9,025 165 248 0
2017-12-10 09:31:18 GMT 51.46420 0.52403 9,000 172 239 0
2017-12-10 09:31:06 GMT 51.47719 0.52279 9,000 184 264 0
2017-12-10 09:30:56 GMT 51.48817 0.51940 9,000 172 249 0
2017-12-10 09:30:48 GMT 51.49734 0.51757 9,000 170 237 0
2017-12-10 09:30:36 GMT 51.51054 0.51485 9,000 172 224 0
2017-12-10 09:30:28 GMT 51.51876 0.51301 9,000 169 249 0
2017-12-10 09:30:18 GMT 51.53010 0.51065 9,000 173 222 0
2017-12-10 09:30:07 GMT 51.54194 0.50801 9,000 175 216 0
2017-12-10 09:29:57 GMT 51.55235 0.50625 9,000 171 252 0
2017-12-10 09:29:47 GMT 51.56371 0.50379 9,000 175 218 -120
2017-12-10 09:29:37 GMT 51.57416 0.50203 9,025 171 248 60
2017-12-10 09:29:28 GMT 51.58439 0.49969 9,025 173 234 60
2017-12-10 09:29:17 GMT 51.59664 0.49783 9,000 173 223 0
2017-12-10 09:29:08 GMT 51.60587 0.49606 9,000 178 247 0
2017-12-10 09:28:58 GMT 51.61685 0.49320 9,000 173 220 0
2017-12-10 09:28:47 GMT 51.62774 0.49135 9,000 169 221 0
2017-12-10 09:28:37 GMT 51.63845 0.48883 9,000 173 248 0
2017-12-10 09:28:27 GMT 51.64938 0.48673 9,000 172 238 0
2017-12-10 09:28:17 GMT 51.65998 0.48398 9,000 171 244 0
2017-12-10 09:28:06 GMT 51.67225 0.48092 9,000 160 240 0
2017-12-10 09:27:57 GMT 51.68166 0.47541 9,000 165 233 0
2017-12-10 09:27:47 GMT 51.69183 0.47141 9,000 166 230 -60
2017-12-10 09:27:38 GMT 51.70109 0.46810 9,000 168 227 -60
2017-12-10 09:27:27 GMT 51.71256 0.46403 9,025 165 215 0
2017-12-10 09:27:18 GMT 51.72125 0.46045 9,025 157 211 120
2017-12-10 09:27:06 GMT 51.73374 0.45706 9,000 162 208 -60
2017-12-10 09:26:57 GMT 51.74200 0.45284 9,000 169 234 0
2017-12-10 09:26:48 GMT 51.75260 0.45051 9,025 168 220 60
2017-12-10 09:26:37 GMT 51.76296 0.44583 9,025 170 196 60
2017-12-10 09:26:26 GMT 51.77431 0.44272 9,000 166 211 0
2017-12-10 09:26:17 GMT 51.78286 0.43933 9,000 168 248 0
2017-12-10 09:26:04 GMT 51.79570 0.43028 9,000 183 237 0
2017-12-10 09:25:58 GMT 51.80250 0.43176 9,000 141 224 -420
2017-12-10 09:25:47 GMT 51.81333 0.42300 9,000 132 244 -960
2017-12-10 09:25:36 GMT 51.82153 0.40776 9,100 137 254 -1080
2017-12-10 09:25:26 GMT 51.83021 0.39486 9,225 125 247 -720
2017-12-10 09:25:18 GMT 51.83426 0.38239 9,400 129 264 -1020
2017-12-10 09:25:07 GMT 51.84055 0.36289 9,650 140 244 -720
2017-12-10 09:24:57 GMT 51.84935 0.35133 9,650 127 268 -840
2017-12-10 09:24:47 GMT 51.85583 0.33516 9,825 130 266 0
2017-12-10 09:24:37 GMT 51.86453 0.32347 10,000 117 283 -960
2017-12-10 09:24:27 GMT 51.87149 0.30768 10,200 108 282 -780
2017-12-10 09:24:17 GMT 51.87670 0.29104 10,375 130 260 -960
2017-12-10 09:24:08 GMT 51.88476 0.27776 10,625 115 239 -780
2017-12-10 09:23:57 GMT 51.89426 0.26480 10,625 110 267 -720
2017-12-10 09:23:47 GMT 51.89852 0.24601 10,825 133 269 0
2017-12-10 09:23:37 GMT 51.90648 0.23098 11,000 101 253 -3180
2017-12-10 09:23:27 GMT 51.90876 0.21232 11,200 150 294 -2760
2017-12-10 09:23:17 GMT 51.92059 0.20137 11,850 127 247 1140
2017-12-10 09:23:08 GMT 51.92685 0.18812 11,600 146 277 -2340
2017-12-10 09:22:54 GMT 51.94176 0.17193 11,600 124 246 1080
2017-12-10 09:22:47 GMT 51.94177 0.15717 12,425 145 290 1020
2017-12-10 09:22:36 GMT 51.95051 0.14029 12,125 126 240 -1320
2017-12-10 09:22:26 GMT 51.95858 0.12553 12,200 124 237 -2220
2017-12-10 09:22:17 GMT 51.96417 0.11227 12,400 129 264 -1680
2017-12-10 09:22:07 GMT 51.97142 0.09707 12,800 137 274 -180
2017-12-10 09:21:56 GMT 51.97976 0.08077 12,850 131 276 -660
2017-12-10 09:21:47 GMT 51.98739 0.06673 12,850 129 250 0
2017-12-10 09:21:37 GMT 51.99474 0.05276 13,000 153 375 0
2017-12-10 09:21:26 GMT 52.01186 0.03906 13,000 88 257 0
2017-12-10 09:21:18 GMT 52.00922 0.02319 13,000 127 284 0
2017-12-10 09:21:07 GMT 52.01743 0.00606 13,000 135 266 0
2017-12-10 09:20:57 GMT 52.02549 -0.00806 13,000 131 254 0
2017-12-10 09:20:47 GMT 52.03486 -0.02241 13,000 139 262 0
2017-12-10 09:20:38 GMT 52.04312 -0.03401 13,000 158 254 0
2017-12-10 09:20:27 GMT 52.05487 -0.04194 13,000 181 254 0
2017-12-10 09:20:16 GMT 52.06889 -0.02967 13,000 186 261 0
2017-12-10 09:19:43 GMT 52.10853 -0.02231 13,000 276 139 0
2017-12-10 09:19:37 GMT 52.10658 -0.01546 13,000 247 294 0
2017-12-10 09:19:28 GMT 52.11136 0.00295 13,000 286 252 0
2017-12-10 09:19:17 GMT 52.10765 0.02301 13,000 260 273 -60
2017-12-10 09:19:08 GMT 52.11110 0.04183 13,000 301 256 -60
2017-12-10 09:18:58 GMT 52.10483 0.05822 13,025 314 255 0
2017-12-10 09:18:47 GMT 52.09803 0.07183 13,025 343 304 60
2017-12-10 09:18:38 GMT 52.08513 0.07825 13,000 351 258 0
2017-12-10 09:18:28 GMT 52.07311 0.07976 13,000 7 255 0
2017-12-10 09:18:17 GMT 52.06018 0.07717 13,000 4 354 0
2017-12-10 09:18:07 GMT 52.04653 0.07509 13,000 6 250 0
2017-12-10 09:17:58 GMT 52.03615 0.07315 13,000 359 192 0
2017-12-10 09:17:47 GMT 52.02634 0.07334 13,000 7 364 0
2017-12-10 09:17:38 GMT 52.01129 0.07014 13,000 12 291 0
2017-12-10 09:17:28 GMT 51.99833 0.06540 13,000 24 279 0
2017-12-10 09:17:17 GMT 51.98568 0.05517 13,000 44 252 0
2017-12-10 09:17:08 GMT 51.97818 0.04322 13,000 66 276 -60
2017-12-10 09:16:57 GMT 51.97277 0.02217 13,000 82 257 0
2017-12-10 09:16:47 GMT 51.97107 0.00200 13,025 108 265 0
2017-12-10 09:16:38 GMT 51.97456 -0.01505 13,025 121 275 0
2017-12-10 09:16:28 GMT 51.98126 -0.03356 13,025 142 271 0
2017-12-10 09:16:18 GMT 51.99090 -0.04506 13,025 148 260 120
2017-12-10 09:16:08 GMT 52.00202 -0.05094 13,000 180 239 0
2017-12-10 09:15:58 GMT 52.01267 -0.05255 13,000 191 284 0
2017-12-10 09:15:48 GMT 52.02551 -0.04906 13,000 187 231 0
2017-12-10 09:15:38 GMT 52.03581 -0.04713 13,000 187 289 0
2017-12-10 09:15:28 GMT 52.04784 -0.04701 13,000 189 245 0
2017-12-10 09:15:17 GMT 52.05688 -0.04388 13,000 184 331 0
2017-12-10 09:15:08 GMT 52.07065 -0.04204 13,000 175 254 0
2017-12-10 09:14:58 GMT 52.08238 -0.04366 13,000 197 237 0
2017-12-10 09:14:47 GMT 52.09437 -0.03315 13,000 218 242 0
2017-12-10 09:14:37 GMT 52.10276 -0.02469 13,000 238 302 0
2017-12-10 09:14:28 GMT 52.10935 -0.00724 13,000 252 262 0
2017-12-10 09:14:17 GMT 52.11341 0.01339 13,000 269 248 -60
2017-12-10 09:14:06 GMT 52.11066 0.03358 13,000 272 245 -60
2017-12-10 09:13:56 GMT 52.11016 0.05206 13,025 317 301 0
2017-12-10 09:13:48 GMT 52.10186 0.06424 13,025 331 275 60
2017-12-10 09:13:35 GMT 52.08824 0.07789 13,025 350 260 0
2017-12-10 09:13:27 GMT 52.07874 0.08054 13,000 7 265 0
2017-12-10 09:13:18 GMT 52.06779 0.07829 13,000 2 301 0
2017-12-10 09:13:07 GMT 52.05259 0.07078 13,000 349 253 60
2017-12-10 09:12:57 GMT 52.04106 0.07425 13,000 10 291 120
2017-12-10 09:12:47 GMT 52.02909 0.07270 12,975 2 222 -60
2017-12-10 09:12:36 GMT 52.01481 0.06981 12,975 3 276 0
2017-12-10 09:12:28 GMT 52.00459 0.06888 13,000 15 286 -120
2017-12-10 09:12:18 GMT 51.99291 0.06402 13,000 34 291 -60
2017-12-10 09:12:07 GMT 51.98144 0.04991 13,025 56 284 0
2017-12-10 09:11:56 GMT 51.97518 0.03102 13,025 73 279 0
2017-12-10 09:11:48 GMT 51.97219 0.01496 13,025 87 282 0
2017-12-10 09:11:37 GMT 51.97237 -0.00744 13,025 113 266 0
2017-12-10 09:11:28 GMT 51.97440 -0.02468 13,025 147 351 120
2017-12-10 09:11:18 GMT 51.98569 -0.03926 13,025 144 248 120
2017-12-10 09:11:08 GMT 51.99460 -0.04958 13,000 174 289 0
2017-12-10 09:10:58 GMT 52.00714 -0.05180 13,000 176 199 0
2017-12-10 09:10:48 GMT 52.01798 -0.05205 13,000 185 234 0
2017-12-10 09:10:36 GMT 52.03249 -0.04838 13,000 180 203 0
2017-12-10 09:10:27 GMT 52.04288 -0.04746 13,000 183 248 0
2017-12-10 09:10:18 GMT 52.05319 -0.04637 13,000 187 265 0
2017-12-10 09:10:09 GMT 52.06416 -0.04406 13,000 184 248 0
2017-12-10 09:09:57 GMT 52.07788 -0.04217 13,000 193 242 0
2017-12-10 09:09:48 GMT 52.08812 -0.03907 13,000 209 242 0
2017-12-10 09:09:37 GMT 52.09890 -0.02930 13,000 222 218 0
2017-12-10 09:09:27 GMT 52.10664 -0.01666 13,000 242 261 0
2017-12-10 09:09:16 GMT 52.11223 0.00309 13,000 265 237 0
2017-12-10 09:09:05 GMT 52.11620 0.02404 13,000 292 258 -120
2017-12-10 09:08:57 GMT 52.11249 0.03840 13,000 278 238 -60
2017-12-10 09:08:47 GMT 52.11082 0.05615 13,025 325 332 0
2017-12-10 09:08:36 GMT 52.09740 0.06959 13,025 327 267 60
2017-12-10 09:08:27 GMT 52.08800 0.07933 13,025 4 298 0
2017-12-10 09:08:17 GMT 52.07583 0.07949 13,000 0 259 0
2017-12-10 09:08:06 GMT 52.06401 0.07953 13,000 5 303 0
2017-12-10 09:07:56 GMT 52.05006 0.07715 13,000 5 290 0
2017-12-10 09:07:48 GMT 52.03937 0.07535 13,000 9 313 0
2017-12-10 09:07:38 GMT 52.02506 0.07146 13,000 356 200 -60
2017-12-10 09:07:26 GMT 52.01168 0.07116 13,000 357 151 0
2017-12-10 09:07:14 GMT 52.00330 0.07187 13,025 27 434 60
2017-12-10 09:07:06 GMT 51.98872 0.05969 13,025 39 297 0
2017-12-10 09:06:56 GMT 51.98091 0.04670 13,000 49 341 -120
2017-12-10 09:06:48 GMT 51.97277 0.03097 13,025 78 281 0
2017-12-10 09:06:36 GMT 51.97120 0.00605 13,025 100 277 60
2017-12-10 09:06:27 GMT 51.97324 -0.01243 13,025 119 262 0
2017-12-10 09:06:17 GMT 51.97901 -0.03123 13,000 141 220 0
2017-12-10 09:06:08 GMT 51.98619 -0.04057 13,000 140 268 0
2017-12-10 09:05:57 GMT 51.99774 -0.04971 13,000 164 267 0
2017-12-10 09:05:47 GMT 52.01000 -0.05603 13,000 196 249 0
2017-12-10 09:05:37 GMT 52.02090 -0.05077 13,000 184 256 0
2017-12-10 09:05:27 GMT 52.03328 -0.04901 13,000 188 248 0
2017-12-10 09:05:18 GMT 52.04350 -0.04651 13,000 184 241 0
2017-12-10 09:05:07 GMT 52.05576 -0.04511 13,000 187 233 0
2017-12-10 09:04:57 GMT 52.06724 -0.04399 13,000 187 240 -60
2017-12-10 09:04:48 GMT 52.07717 -0.04197 13,025 181 237 0
2017-12-10 09:04:36 GMT 52.09109 -0.03786 13,025 228 258 0
2017-12-10 09:03:34 GMT 52.09471 0.05774 13,025 244 254 0
2017-12-10 09:03:28 GMT 52.09916 0.06881 13,025 325 286 60
2017-12-10 09:03:14 GMT 52.08393 0.08612 13,025 26 335 0
2017-12-10 09:03:04 GMT 52.07000 0.07500 13,000 339 226 0
2017-12-10 09:02:58 GMT 52.06388 0.08008 13,000 7 259 0
2017-12-10 09:02:47 GMT 52.04997 0.07792 13,000 6 259 0
2017-12-10 09:02:38 GMT 52.03923 0.07597 13,000 6 259 0
2017-12-10 09:02:28 GMT 52.02631 0.07238 13,000 8 280 0
2017-12-10 09:02:17 GMT 52.01235 0.06925 13,000 4 272 0
2017-12-10 09:02:06 GMT 51.99851 0.06894 13,000 25 265 0
2017-12-10 09:01:58 GMT 51.98962 0.06214 13,000 40 282 0
2017-12-10 09:01:46 GMT 51.97814 0.04478 13,000 60 245 0
2017-12-10 09:01:38 GMT 51.97363 0.03196 13,000 75 273 -60
2017-12-10 09:01:27 GMT 51.97228 0.00921 13,000 87 269 0
2017-12-10 09:01:17 GMT 51.97240 -0.01227 13,025 116 225 120
2017-12-10 09:01:07 GMT 51.97778 -0.02691 13,000 128 301 0
2017-12-10 09:00:57 GMT 51.98613 -0.04090 13,000 146 246 0
2017-12-10 09:00:47 GMT 51.99566 -0.05110 13,000 171 287 0
2017-12-10 09:00:37 GMT 52.00816 -0.05371 13,000 186 238 0
2017-12-10 09:00:28 GMT 52.01805 -0.05201 13,000 187 265 0
2017-12-10 09:00:18 GMT 52.03022 -0.04931 13,000 186 251 0
2017-12-10 09:00:08 GMT 52.04182 -0.04837 13,000 183 244 0
2017-12-10 08:59:58 GMT 52.05313 -0.04538 13,000 183 255 0
2017-12-10 08:59:48 GMT 52.06492 -0.04416 13,000 185 249 0
2017-12-10 08:59:38 GMT 52.07577 -0.04275 13,000 184 244 -120
2017-12-10 08:59:26 GMT 52.08960 -0.03836 13,025 208 259 0
2017-12-10 08:59:18 GMT 52.09804 -0.03096 13,025 212 362 0
2017-12-10 08:59:05 GMT 52.11646 -0.01196 13,025 289 246 60
2017-12-10 08:58:58 GMT 52.11226 -0.00042 13,025 259 235 120
2017-12-10 08:58:48 GMT 52.11442 0.01794 13,000 278 253 0
2017-12-10 08:58:37 GMT 52.11251 0.03874 13,000 287 249 0
2017-12-10 08:58:27 GMT 52.10748 0.05790 13,000 319 256 -60
2017-12-10 08:58:18 GMT 52.09941 0.06925 13,025 331 255 60
2017-12-10 08:58:07 GMT 52.08579 0.07503 13,000 341 268 0
2017-12-10 08:57:58 GMT 52.07520 0.08089 13,000 356 250 0
2017-12-10 08:57:48 GMT 52.06470 0.07978 13,000 6 293 0
2017-12-10 08:57:35 GMT 52.04738 0.07614 13,000 1 254 0
2017-12-10 08:57:28 GMT 52.03871 0.07621 13,000 4 266 0
2017-12-10 08:57:16 GMT 52.02386 0.07293 13,000 2 276 0
2017-12-10 08:57:07 GMT 52.01234 0.07196 13,000 6 271 0
2017-12-10 08:56:58 GMT 52.00111 0.06981 13,000 20 288 0
2017-12-10 08:56:46 GMT 51.98729 0.05947 13,000 38 256 -60
2017-12-10 08:56:37 GMT 51.97897 0.04862 13,000 51 296 -60
2017-12-10 08:56:27 GMT 51.97171 0.02975 13,025 70 307 0
2017-12-10 08:56:18 GMT 51.96733 0.01022 13,025 109 264 0
2017-12-10 08:56:06 GMT 51.97206 -0.01086 13,025 108 252 60
2017-12-10 08:55:57 GMT 51.97544 -0.02703 13,025 137 324 0
2017-12-10 08:55:47 GMT 51.98586 -0.03994 13,000 154 255 0
2017-12-10 08:55:38 GMT 51.99544 -0.04747 13,000 161 263 0
2017-12-10 08:55:28 GMT 52.00666 -0.05236 13,000 179 229 0
2017-12-10 08:55:18 GMT 52.01722 -0.05095 13,000 183 244 0
2017-12-10 08:55:07 GMT 52.03005 -0.04988 13,000 185 254 0
2017-12-10 08:54:58 GMT 52.04058 -0.04826 13,000 186 266 0
2017-12-10 08:54:48 GMT 52.05227 -0.04573 13,000 174 243 0
2017-12-10 08:54:38 GMT 52.06353 -0.04426 13,000 173 248 0
2017-12-10 08:54:28 GMT 52.07493 -0.04648 13,000 194 246 0
2017-12-10 08:54:17 GMT 52.08826 -0.03890 13,000 197 220 0
2017-12-10 08:54:07 GMT 52.09849 -0.03054 13,000 227 252 -60
2017-12-10 08:53:55 GMT 52.11197 -0.01472 13,025 254 254 60
2017-12-10 08:53:47 GMT 52.11452 0.00006 13,025 276 228 0
2017-12-10 08:53:27 GMT 52.11221 0.03423 13,000 288 298 0
2017-12-10 08:53:17 GMT 52.10773 0.05546 13,000 322 302 0
2017-12-10 08:53:07 GMT 52.09956 0.07041 13,000 346 269 0
2017-12-10 08:52:58 GMT 52.08862 0.07462 13,000 338 273 0
2017-12-10 08:52:46 GMT 52.07512 0.08273 13,000 8 276 0
2017-12-10 08:52:36 GMT 52.06194 0.08016 13,000 19 297 0
2017-12-10 08:52:25 GMT 52.04764 0.07201 13,000 341 252 0
2017-12-10 08:52:17 GMT 52.03880 0.07695 13,000 10 285 0
2017-12-10 08:52:07 GMT 52.02542 0.07243 13,000 357 268 0
2017-12-10 08:51:57 GMT 52.01388 0.07208 13,000 6 281 0
2017-12-10 08:51:46 GMT 51.99964 0.07065 13,000 18 251 0
2017-12-10 08:51:38 GMT 51.99081 0.06583 13,000 40 313 -120
2017-12-10 08:51:28 GMT 51.98017 0.05077 13,000 55 252 -120
2017-12-10 08:51:18 GMT 51.97353 0.03492 13,025 73 294 0
2017-12-10 08:51:07 GMT 51.97030 0.01279 13,025 93 263 0
2017-12-10 08:50:57 GMT 51.97157 -0.00640 13,025 108 274 120
2017-12-10 08:50:47 GMT 51.97418 -0.02547 13,000 147 330 0
2017-12-10 08:50:37 GMT 51.98473 -0.03841 13,000 147 236 -60
2017-12-10 08:50:28 GMT 51.99302 -0.04703 13,025 163 266 120
2017-12-10 08:50:16 GMT 52.00687 -0.05155 13,025 182 244 0
2017-12-10 08:50:07 GMT 52.01706 -0.05101 13,000 185 257 0
2017-12-10 08:49:58 GMT 52.02772 -0.04938 13,000 183 249 0
2017-12-10 08:49:46 GMT 52.04045 -0.05126 13,000 197 280 0
2017-12-10 08:49:37 GMT 52.05158 -0.04543 13,000 182 247 0
2017-12-10 08:49:27 GMT 52.06303 -0.04470 13,000 184 241 0
2017-12-10 08:49:17 GMT 52.07442 -0.04275 13,000 186 248 0
2017-12-10 08:49:07 GMT 52.08590 -0.03972 13,000 197 246 0
2017-12-10 08:48:56 GMT 52.09763 -0.03122 13,000 220 229 0
2017-12-10 08:48:47 GMT 52.10485 -0.02100 13,000 235 261 0
2017-12-10 08:48:37 GMT 52.11142 -0.00271 13,000 249 240 0
2017-12-10 08:48:27 GMT 52.11469 0.01414 13,000 274 242 0
2017-12-10 08:48:17 GMT 52.11699 0.03351 13,000 303 298 0
2017-12-10 08:48:07 GMT 52.10935 0.05098 13,000 305 273 -60
2017-12-10 08:47:58 GMT 52.10267 0.06602 13,000 325 261 0
2017-12-10 08:47:46 GMT 52.09068 0.07934 13,025 342 284 120
2017-12-10 08:47:36 GMT 52.07798 0.08357 13,000 6 294 0
2017-12-10 08:47:28 GMT 52.06715 0.08156 13,000 8 278 0
2017-12-10 08:47:17 GMT 52.05431 0.08022 13,000 9 303 0
2017-12-10 08:47:07 GMT 52.04080 0.07667 13,000 356 254 0
2017-12-10 08:46:57 GMT 52.02881 0.07712 13,000 8 285 0
2017-12-10 08:46:47 GMT 52.01638 0.07452 13,000 8 279 0
2017-12-10 08:46:36 GMT 52.00229 0.07160 13,000 14 260 0
2017-12-10 08:46:27 GMT 51.99176 0.06728 13,000 37 292 0
2017-12-10 08:46:16 GMT 51.98110 0.05351 13,000 52 264 0
2017-12-10 08:46:08 GMT 51.97516 0.04091 13,000 68 305 0
2017-12-10 08:45:56 GMT 51.96877 0.01785 13,000 98 283 0
2017-12-10 08:45:48 GMT 51.97025 0.00101 13,000 101 295 0
2017-12-10 08:45:36 GMT 51.97617 -0.01991 13,000 114 241 0
2017-12-10 08:45:28 GMT 51.97993 -0.03310 13,000 141 276 0
2017-12-10 08:45:18 GMT 51.98971 -0.04445 13,000 167 316 0
2017-12-10 08:44:56 GMT 52.01024 -0.05326 13,000 187 334 0
2017-12-10 08:44:47 GMT 52.02402 -0.05016 13,000 188 266 0
2017-12-10 08:44:37 GMT 52.03523 -0.04896 13,000 188 270 0
2017-12-10 08:44:27 GMT 52.04676 -0.04646 13,000 182 234 0
2017-12-10 08:44:18 GMT 52.05653 -0.04569 13,000 190 255 0
2017-12-10 08:44:06 GMT 52.07129 -0.04245 13,000 178 207 0
2017-12-10 08:43:58 GMT 52.07898 -0.04269 13,000 196 259 0
2017-12-10 08:43:48 GMT 52.09059 -0.03795 13,000 185 209 0
2017-12-10 08:43:37 GMT 52.10032 -0.03691 13,000 237 394 0
2017-12-10 08:43:27 GMT 52.11014 -0.01182 13,000 244 252 0
2017-12-10 08:43:17 GMT 52.11501 0.00561 13,000 248 276 0
2017-12-10 08:43:05 GMT 52.12068 0.02889 13,025 300 282 120
2017-12-10 08:42:57 GMT 52.11540 0.04361 13,000 303 249 0
2017-12-10 08:42:47 GMT 52.10926 0.06196 13,000 304 235 -60
2017-12-10 08:42:35 GMT 52.10181 0.07949 13,025 333 267 60
2017-12-10 08:42:26 GMT 52.09182 0.08759 13,025 356 350 0
2017-12-10 08:42:17 GMT 52.07724 0.08895 13,000 4 261 0
2017-12-10 08:42:08 GMT 52.06639 0.08766 13,000 5 256 0
2017-12-10 08:41:58 GMT 52.05407 0.08640 13,000 6 294 0
2017-12-10 08:41:46 GMT 52.03853 0.08319 13,000 6 275 0
2017-12-10 08:41:38 GMT 52.02841 0.08131 13,000 2 280 0
2017-12-10 08:41:28 GMT 52.01530 0.07890 13,000 4 279 0
2017-12-10 08:41:16 GMT 52.00009 0.07664 13,000 19 275 0
2017-12-10 08:41:08 GMT 51.99050 0.07110 13,000 32 259 0
2017-12-10 08:40:58 GMT 51.97986 0.05793 13,000 60 221 0
2017-12-10 08:40:48 GMT 51.97307 0.04312 13,000 68 289 0
2017-12-10 08:40:36 GMT 51.97015 0.02016 13,000 83 293 0
2017-12-10 08:40:28 GMT 51.96887 0.00265 13,000 99 260 0
2017-12-10 08:40:17 GMT 51.97110 -0.01853 13,000 128 263 0
2017-12-10 08:40:07 GMT 51.98064 -0.03454 13,000 145 257 0
2017-12-10 08:39:58 GMT 51.98943 -0.04444 13,000 161 312 0
2017-12-10 08:39:48 GMT 52.00039 -0.05139 13,000 172 237 0
2017-12-10 08:39:37 GMT 52.01290 -0.05315 13,000 185 236 0
2017-12-10 08:39:25 GMT 52.02573 -0.05617 13,000 201 298 0
2017-12-10 08:39:16 GMT 52.03727 -0.04866 13,000 170 241 0
2017-12-10 08:39:08 GMT 52.04610 -0.05097 13,000 158 267 0
2017-12-10 08:38:58 GMT 52.05769 -0.05660 13,000 154 207 0
2017-12-10 08:38:48 GMT 52.06918 -0.06220 13,000 160 243 0
2017-12-10 08:38:38 GMT 52.07953 -0.07046 13,000 167 236 0
2017-12-10 08:38:26 GMT 52.08934 -0.07384 13,000 183 342 -60
2017-12-10 08:38:17 GMT 52.10359 -0.07230 13,000 196 253 -60
2017-12-10 08:38:07 GMT 52.11483 -0.06679 13,025 216 274 0
2017-12-10 08:37:57 GMT 52.12410 -0.05610 13,025 230 319 0
2017-12-10 08:37:47 GMT 52.13198 -0.03936 13,025 248 283 120
2017-12-10 08:37:37 GMT 52.13647 -0.02078 13,000 260 285 0
2017-12-10 08:37:25 GMT 52.13638 -0.00379 13,000 276 382 0
2017-12-10 08:37:17 GMT 52.13486 0.01913 13,000 291 273 0
2017-12-10 08:37:07 GMT 52.12986 0.03674 13,000 300 239 0
2017-12-10 08:36:56 GMT 52.12983 0.06147 13,025 356 460 60
2017-12-10 08:36:46 GMT 52.10859 0.06376 13,000 349 273 0
2017-12-10 08:36:38 GMT 52.09864 0.06679 13,000 0 293 0
2017-12-10 08:36:26 GMT 52.08436 0.06747 13,000 9 319 0
2017-12-10 08:36:18 GMT 52.07269 0.06436 13,000 359 283 0
2017-12-10 08:36:07 GMT 52.05797 0.06379 13,000 357 264 0
2017-12-10 08:35:57 GMT 52.04711 0.06620 13,000 4 291 0
2017-12-10 08:35:47 GMT 52.03366 0.06433 13,000 2 303 0
2017-12-10 08:35:38 GMT 52.02105 0.06353 13,000 1 275 0
2017-12-10 08:35:27 GMT 52.00699 0.06239 13,000 7 281 0
2017-12-10 08:35:16 GMT 51.99261 0.05901 13,000 14 273 0
2017-12-10 08:35:07 GMT 51.98161 0.05425 13,000 21 266 0
2017-12-10 08:34:57 GMT 51.96960 0.04758 13,000 28 281 -60
2017-12-10 08:34:46 GMT 51.95688 0.03541 13,025 15 260 0
2017-12-10 08:34:38 GMT 51.94759 0.03119 13,025 20 283 120
2017-12-10 08:34:28 GMT 51.93465 0.02229 13,025 23 253 60
2017-12-10 08:34:17 GMT 51.92213 0.01321 13,000 22 240 0
2017-12-10 08:34:08 GMT 51.91290 0.00695 13,000 24 308 0
2017-12-10 08:33:57 GMT 51.89790 -0.00396 13,000 20 272 0
2017-12-10 08:33:47 GMT 51.88613 -0.01120 13,000 27 269 0
2017-12-10 08:33:37 GMT 51.87405 -0.02090 13,000 24 267 0
2017-12-10 08:33:27 GMT 51.86403 -0.02810 13,000 24 338 0
2017-12-10 08:33:16 GMT 51.84948 -0.04015 13,000 13 259 0
2017-12-10 08:33:08 GMT 51.84016 -0.04386 13,000 24 281 0
2017-12-10 08:32:58 GMT 51.82845 -0.05210 13,000 20 273 0
2017-12-10 08:32:47 GMT 51.81679 -0.05969 13,000 26 340 0
2017-12-10 08:32:37 GMT 51.80327 -0.06995 13,000 23 277 0
2017-12-10 08:32:27 GMT 51.79224 -0.07771 13,000 23 272 0
2017-12-10 08:32:16 GMT 51.77884 -0.08624 13,000 22 287 0
2017-12-10 08:32:08 GMT 51.76900 -0.09275 13,000 29 274 0
2017-12-10 08:31:58 GMT 51.75631 -0.10243 13,000 24 235 -120
2017-12-10 08:31:46 GMT 51.74245 -0.11283 13,025 29 264 0
2017-12-10 08:31:38 GMT 51.73389 -0.12055 13,025 23 293 120
2017-12-10 08:31:28 GMT 51.72207 -0.12786 13,000 28 297 0
2017-12-10 08:31:16 GMT 51.70771 -0.13903 13,000 24 265 0
2017-12-10 08:31:08 GMT 51.69876 -0.14557 13,000 32 315 -600
2017-12-10 08:30:58 GMT 51.68724 -0.15481 13,000 27 282 -2880
2017-12-10 08:30:46 GMT 51.67304 -0.16502 13,125 28 287 -2700
2017-12-10 08:30:36 GMT 51.66167 -0.17460 13,675 26 299 -1560
2017-12-10 08:30:27 GMT 51.65051 -0.18361 13,675 25 298 -1560
2017-12-10 08:30:16 GMT 51.63704 -0.19339 14,025 28 272 360
2017-12-10 08:30:06 GMT 51.62516 -0.20294 13,950 23 260 -720
2017-12-10 08:29:58 GMT 51.61630 -0.20907 13,950 25 288 -1560
2017-12-10 08:29:47 GMT 51.60246 -0.22025 14,100 25 288 -960
2017-12-10 08:29:37 GMT 51.59072 -0.22853 14,300 27 304 -960
2017-12-10 08:29:27 GMT 51.57906 -0.23832 14,500 23 292 -1200
2017-12-10 08:29:17 GMT 51.56648 -0.24782 14,750 26 275 -840
2017-12-10 08:29:07 GMT 51.55430 -0.25645 14,925 26 302 -780
2017-12-10 08:28:58 GMT 51.54306 -0.26562 14,925 25 290 -1680
2017-12-10 08:28:46 GMT 51.52905 -0.27578 15,100 27 314 -2820
2017-12-10 08:28:36 GMT 51.51729 -0.28643 15,325 24 318 -2820
2017-12-10 08:28:28 GMT 51.50660 -0.29440 15,900 24 265 720
2017-12-10 08:28:18 GMT 51.49544 -0.30263 15,750 24 327 -1020
2017-12-10 08:28:07 GMT 51.48179 -0.31367 15,975 25 289 -240
2017-12-10 08:27:57 GMT 51.46913 -0.32389 15,975 19 322 -240
2017-12-10 08:27:47 GMT 51.45607 -0.32913 16,025 6 285 0
2017-12-10 08:27:36 GMT 51.44203 -0.33178 16,025 353 253 60
2017-12-10 08:27:25 GMT 51.42818 -0.32891 16,025 338 279 60
2017-12-10 08:27:18 GMT 51.42040 -0.32605 16,000 338 260 0
2017-12-10 08:27:07 GMT 51.40853 -0.31823 16,000 328 282 0
2017-12-10 08:26:57 GMT 51.39796 -0.30782 16,000 323 266 -1920
2017-12-10 08:26:48 GMT 51.38898 -0.29736 16,000 325 246 -2100
2017-12-10 08:26:38 GMT 51.37851 -0.28454 16,425 327 224 480
2017-12-10 08:26:28 GMT 51.37034 -0.27627 16,325 325 301 -660
2017-12-10 08:26:16 GMT 51.35735 -0.26187 16,500 324 273 -2100
2017-12-10 08:26:07 GMT 51.34809 -0.25127 17,000 324 258 180
2017-12-10 08:25:56 GMT 51.33749 -0.23949 17,000 326 276 -1260
2017-12-10 08:25:48 GMT 51.32900 -0.23039 16,950 324 271 -2160
2017-12-10 08:25:38 GMT 51.31884 -0.21861 17,225 325 273 -1140
2017-12-10 08:25:28 GMT 51.30840 -0.20724 17,500 322 296 -1320
2017-12-10 08:25:18 GMT 51.29844 -0.19561 17,775 323 323 -1500
2017-12-10 08:25:08 GMT 51.28692 -0.18275 18,075 325 263 -1560
2017-12-10 08:24:57 GMT 51.27449 -0.17030 18,425 322 272 -780
2017-12-10 08:24:47 GMT 51.26441 -0.15814 18,425 322 274 -1200
2017-12-10 08:24:38 GMT 51.25512 -0.14773 18,650 326 279 -2520
2017-12-10 08:24:26 GMT 51.24170 -0.13298 18,975 325 315 -1260
2017-12-10 08:24:17 GMT 51.23089 -0.12111 19,250 323 226 -1320
2017-12-10 08:24:07 GMT 51.22268 -0.11482 19,525 319 379 -1560
2017-12-10 08:23:58 GMT 51.21069 -0.09834 19,875 324 298 -600
2017-12-10 08:23:48 GMT 51.19953 -0.08682 19,875 322 283 -600
2017-12-10 08:23:38 GMT 51.18805 -0.07211 20,000 329 232 0
2017-12-10 08:23:28 GMT 51.17854 -0.06169 20,000 325 280 0
2017-12-10 08:23:17 GMT 51.16707 -0.04872 20,000 326 285 0
2017-12-10 08:23:07 GMT 51.15669 -0.03740 20,000 325 288 60
2017-12-10 08:22:58 GMT 51.14683 -0.02649 19,975 324 300 0
2017-12-10 08:22:47 GMT 51.13495 -0.01311 19,975 326 313 0
2017-12-10 08:22:38 GMT 51.12406 -0.00160 19,975 325 323 120
2017-12-10 08:22:26 GMT 51.11014 0.01310 19,975 328 220 0
2017-12-10 08:22:18 GMT 51.10318 0.01987 19,950 323 370 -180
2017-12-10 08:22:08 GMT 51.08940 0.03604 19,950 326 291 -240
2017-12-10 08:21:58 GMT 51.07606 0.05126 20,000 325 346 0
2017-12-10 08:21:46 GMT 51.06023 0.06845 20,000 325 378 0
2017-12-10 08:21:38 GMT 51.04866 0.08099 20,000 326 277 -120
2017-12-10 08:21:28 GMT 51.03638 0.09291 20,000 322 383 120
2017-12-10 08:21:18 GMT 51.02424 0.10910 20,025 321 401 240
2017-12-10 08:21:08 GMT 51.01127 0.12443 19,975 312 352 -240
2017-12-10 08:20:56 GMT 50.99774 0.14594 20,025 314 303 60
2017-12-10 08:20:47 GMT 50.98893 0.16035 20,000 313 391 0
2017-12-10 08:20:37 GMT 50.97606 0.17980 20,000 312 369 0
2017-12-10 08:20:26 GMT 50.96331 0.20172 20,000 310 267 0
2017-12-10 08:20:18 GMT 50.95689 0.21369 20,000 317 364 0
2017-12-10 08:20:07 GMT 50.94321 0.23264 20,000 314 363 0
2017-12-10 08:19:57 GMT 50.93242 0.25059 20,000 317 356 0
2017-12-10 08:19:47 GMT 50.92278 0.26750 20,000 316 360 -1080
2017-12-10 08:19:37 GMT 50.90965 0.28557 20,225 314 358 -660
2017-12-10 08:19:26 GMT 50.89806 0.30484 20,225 310 317 -1260
2017-12-10 08:19:17 GMT 50.88947 0.32081 20,375 320 411 -2040
2017-12-10 08:19:06 GMT 50.87547 0.34118 20,650 317 426 -780
2017-12-10 08:18:57 GMT 50.86238 0.36016 20,825 313 352 -900
2017-12-10 08:18:46 GMT 50.85224 0.37840 21,050 318 428 -1680
2017-12-10 08:18:36 GMT 50.83738 0.39919 21,475 314 353 -1260
2017-12-10 08:18:27 GMT 50.82709 0.41588 21,475 315 384 -1320
2017-12-10 08:18:17 GMT 50.81512 0.43447 21,750 315 409 -3000
2017-12-10 08:18:06 GMT 50.80101 0.45726 22,050 314 454 -1740
2017-12-10 08:17:58 GMT 50.78924 0.47626 22,400 316 328 -1020
2017-12-10 08:17:47 GMT 50.77771 0.49233 22,625 311 389 -3600
2017-12-10 08:17:37 GMT 50.76393 0.51422 23,350 313 421 60
2017-12-10 08:17:28 GMT 50.75193 0.53443 23,350 317 318 60
2017-12-10 08:17:17 GMT 50.73875 0.55415 23,325 314 402 -1080
2017-12-10 08:17:07 GMT 50.72478 0.57656 23,550 310 274 -1860
2017-12-10 08:16:56 GMT 50.71565 0.59326 23,900 317 482 -900
2017-12-10 08:16:45 GMT 50.69754 0.61943 24,125 315 420 -1560
2017-12-10 08:16:37 GMT 50.68644 0.63665 24,475 316 426 -1260
2017-12-10 08:16:27 GMT 50.67210 0.65805 24,475 314 305 -2400
2017-12-10 08:16:16 GMT 50.66113 0.67541 24,825 315 401 -4920
2017-12-10 08:16:05 GMT 50.64491 0.69952 25,075 315 432 -3780
2017-12-10 08:15:56 GMT 50.63214 0.71950 25,900 310 321 0
2017-12-10 08:15:48 GMT 50.62441 0.73379 25,900 319 387 -240
2017-12-10 08:15:36 GMT 50.60985 0.75607 25,950 318 465 -1380
2017-12-10 08:15:26 GMT 50.59370 0.77846 25,950 315 400 -1140
2017-12-10 08:15:17 GMT 50.58186 0.79697 26,275 314 455 -1140
2017-12-10 08:15:07 GMT 50.56919 0.81691 26,525 314 432 -2220
2017-12-10 08:14:57 GMT 50.55254 0.84263 26,825 315 184 -1380
2017-12-10 08:14:46 GMT 50.54193 0.85922 27,125 316 502 -2760
2017-12-10 08:14:36 GMT 50.52514 0.88450 27,825 317 323 0
2017-12-10 08:14:26 GMT 50.51409 0.90038 27,825 316 456 -1140
2017-12-10 08:14:15 GMT 50.49759 0.92646 27,825 318 255 -3720
2017-12-10 08:14:06 GMT 50.48956 0.93745 28,075 313 469 -2460
2017-12-10 08:13:56 GMT 50.47450 0.96203 28,700 316 436 0
2017-12-10 08:13:45 GMT 50.45836 0.98599 28,700 315 454 -1500
2017-12-10 08:13:36 GMT 50.44481 1.00671 29,025 314 432 -1140
2017-12-10 08:13:27 GMT 50.43220 1.02693 29,025 317 325 -2340
2017-12-10 08:13:16 GMT 50.42192 1.04112 29,300 316 426 -1980
2017-12-10 08:13:07 GMT 50.41017 1.05893 29,575 317 538 -1020
2017-12-10 08:12:56 GMT 50.39108 1.08786 29,800 315 354 -1920
2017-12-10 08:12:48 GMT 50.38120 1.10435 30,075 310 416 -1080
2017-12-10 08:12:37 GMT 50.36742 1.12958 30,350 324 315 -1740
2017-12-10 08:12:27 GMT 50.35562 1.14410 30,700 318 410 -1620
2017-12-10 08:12:15 GMT 50.33761 1.17183 30,700 318 324 -720
2017-12-10 08:12:06 GMT 50.32957 1.18028 31,025 316 483 -1560
2017-12-10 08:11:57 GMT 50.31237 1.20697 31,250 325 311 -2880
2017-12-10 08:11:46 GMT 50.29925 1.22089 31,500 326 444 -1980
2017-12-10 08:11:36 GMT 50.28203 1.23850 31,975 326 334 -600
2017-12-10 08:11:26 GMT 50.26806 1.25296 32,100 327 348 -1980
2017-12-10 08:11:17 GMT 50.25581 1.26515 32,100 327 419 -2520
2017-12-10 08:11:06 GMT 50.23775 1.28310 32,575 324 482 -1260
2017-12-10 08:10:56 GMT 50.21953 1.30323 32,650 329 227 -1020
2017-12-10 08:10:47 GMT 50.21133 1.31068 32,900 327 464 -1200
2017-12-10 08:10:36 GMT 50.19062 1.33140 33,200 322 440 -1500
2017-12-10 08:10:27 GMT 50.17508 1.34870 33,575 328 405 -1260
2017-12-10 08:10:18 GMT 50.16062 1.36228 33,575 327 272 -1560
2017-12-10 08:10:07 GMT 50.14893 1.37385 33,875 330 393 -480
2017-12-10 08:09:57 GMT 50.13314 1.38802 34,000 322 486 0
2017-12-10 08:09:46 GMT 50.11474 1.40886 34,000 329 433 0
2017-12-10 08:09:37 GMT 50.09884 1.42628 34,000 333 296 0
2017-12-10 08:09:26 GMT 50.08535 1.43688 34,000 328 340 0
2017-12-10 08:09:15 GMT 50.07052 1.45090 34,000 328 452 -60
2017-12-10 08:09:05 GMT 50.05273 1.46806 34,000 329 352 60
2017-12-10 08:08:56 GMT 50.03794 1.48298 34,025 332 236 60
2017-12-10 08:08:46 GMT 50.02818 1.49073 33,975 327 441 -60
2017-12-10 08:08:36 GMT 50.01091 1.50775 34,000 320 296 0
2017-12-10 08:08:26 GMT 50.00031 1.52126 34,000 322 338 60
2017-12-10 08:08:16 GMT 49.98436 1.54053 34,000 317 321 60
2017-12-10 08:08:06 GMT 49.97333 1.55602 33,975 317 324 0
2017-12-10 08:07:57 GMT 49.96310 1.57009 33,975 319 358 -60
2017-12-10 08:07:44 GMT 49.94677 1.59204 33,975 320 361 -60
2017-12-10 08:07:35 GMT 49.93507 1.60678 34,000 322 282 0
2017-12-10 08:07:28 GMT 49.92687 1.61737 34,000 318 353 0
2017-12-10 08:07:16 GMT 49.91231 1.63699 34,000 321 315 0
2017-12-10 08:07:06 GMT 49.90076 1.65363 34,000 320 348 0
2017-12-10 08:06:57 GMT 49.88960 1.66805 34,000 318 349 0
2017-12-10 08:06:44 GMT 49.87380 1.68956 34,000 319 353 0
2017-12-10 08:06:36 GMT 49.86387 1.70276 34,000 317 366 0
2017-12-10 08:06:28 GMT 49.85467 1.71420 34,000 317 379 0
2017-12-10 08:06:13 GMT 49.83522 1.74181 34,000 317 348 0
2017-12-10 08:06:06 GMT 49.82772 1.75061 34,000 316 406 0
2017-12-10 08:05:58 GMT 49.81688 1.76681 34,000 322 305 0
2017-12-10 08:05:46 GMT 49.80205 1.78536 34,000 318 345 0
2017-12-10 08:05:35 GMT 49.78880 1.80362 34,000 322 307 0
2017-12-10 08:05:26 GMT 49.77861 1.81562 34,000 319 363 0
2017-12-10 08:05:16 GMT 49.76666 1.83096 34,000 315 392 -60
2017-12-10 08:05:05 GMT 49.75230 1.85252 34,000 321 343 60
2017-12-10 08:04:56 GMT 49.74111 1.86634 34,025 323 347 60
2017-12-10 08:04:46 GMT 49.72932 1.88120 33,975 321 332 -60
2017-12-10 08:04:34 GMT 49.71634 1.89653 34,000 316 420 58740
2017-12-10 08:04:27 GMT 49.70731 1.90905 34,000 316 365 51420
2017-12-10 08:04:03 GMT 49.67820 1.95002 13,425 320 334 -37380
2017-12-10 08:03:44 GMT 49.65487 1.98055 34,000 318 337 0
2017-12-10 08:03:12 GMT 49.60505 2.04992 34,000 325 200 0
2017-12-10 08:02:57 GMT 49.59891 2.05481 34,000 319 336 0
2017-12-10 08:02:44 GMT 49.58359 2.07243 33,950 316 366 -60
2017-12-10 08:02:34 GMT 49.57168 2.09073 34,000 320 343 0
2017-12-10 08:02:26 GMT 49.56255 2.10152 33,975 318 343 0
We lost coverage of the aircraft here for a total of 25 minutes
2017-12-10 07:37:44 GMT 47.80905 4.39889 34,000 315 340 -60
We lost coverage of the aircraft here for a total of 10 minutes
2017-12-10 07:28:12 GMT 47.15042 5.26329 33,975 315 340 -60
2017-12-10 07:28:05 GMT 47.14268 5.27406 33,975 314 343 -60
2017-12-10 07:27:52 GMT 47.12805 5.29532 34,000 312 344 0
2017-12-10 07:27:46 GMT 47.12155 5.30544 34,000 312 341 0
2017-12-10 07:27:36 GMT 47.11133 5.32182 34,000 313 358 0
2017-12-10 07:27:22 GMT 47.09532 5.34657 34,000 316 312 0
2017-12-10 07:27:16 GMT 47.08856 5.35599 34,000 316 339 0
2017-12-10 07:27:07 GMT 47.07832 5.37033 34,000 316 318 0
2017-12-10 07:26:56 GMT 47.06659 5.38675 34,000 317 357 0
2017-12-10 07:26:47 GMT 47.05540 5.40197 34,000 317 354 60
2017-12-10 07:26:35 GMT 47.04101 5.42163 34,000 317 330 60
2017-12-10 07:26:25 GMT 47.02971 5.43676 33,975 316 343 -60
2017-12-10 07:26:16 GMT 47.01934 5.45125 33,975 317 328 0
2017-12-10 07:26:06 GMT 47.00815 5.46632 34,000 316 346 -60
2017-12-10 07:25:56 GMT 46.99595 5.48349 34,000 316 339 -60
2017-12-10 07:25:47 GMT 46.98645 5.49686 34,000 316 355 180
2017-12-10 07:25:37 GMT 46.97462 5.51357 34,025 317 353 180
2017-12-10 07:25:24 GMT 46.95940 5.53460 33,975 316 341 -60
2017-12-10 07:25:12 GMT 46.94557 5.55376 33,975 316 353 60
2017-12-10 07:25:05 GMT 46.93735 5.56555 34,000 315 337 0
2017-12-10 07:24:52 GMT 46.92247 5.58641 33,975 315 351 -60
2017-12-10 07:24:47 GMT 46.91680 5.59479 33,975 316 347 0
2017-12-10 07:24:37 GMT 46.90497 5.61122 34,000 316 335 0
2017-12-10 07:24:25 GMT 46.89145 5.62998 34,000 316 343 0
2017-12-10 07:24:13 GMT 46.87750 5.64940 34,000 316 339 0
2017-12-10 07:23:54 GMT 46.85568 5.67949 34,000 316 336 -60
2017-12-10 07:23:45 GMT 46.84609 5.69260 34,000 316 341 0
2017-12-10 07:23:37 GMT 46.83649 5.70619 33,975 316 336 0
2017-12-10 07:23:26 GMT 46.82411 5.72361 34,025 316 336 60
2017-12-10 07:23:06 GMT 46.80192 5.75431 34,000 316 345 0
2017-12-10 07:22:57 GMT 46.79143 5.76869 34,000 315 355 60
2017-12-10 07:22:44 GMT 46.77673 5.78960 34,000 317 352 0
2017-12-10 07:22:37 GMT 46.76852 5.80040 33,975 316 338 -60
2017-12-10 07:22:25 GMT 46.75489 5.81924 34,000 316 336 0
2017-12-10 07:22:15 GMT 46.74348 5.83476 34,000 316 333 0
2017-12-10 07:22:05 GMT 46.73255 5.85002 34,000 317 346 0
2017-12-10 07:21:57 GMT 46.72276 5.86293 34,000 316 331 0
2017-12-10 07:21:42 GMT 46.70552 5.88661 34,000 316 337 0
2017-12-10 07:21:26 GMT 46.68820 5.91045 33,975 316 344 0
2017-12-10 07:21:17 GMT 46.67750 5.92570 33,975 316 337 -60
2017-12-10 07:21:04 GMT 46.66290 5.94577 33,975 316 343 0
2017-12-10 07:20:57 GMT 46.65467 5.95764 34,000 317 336 0
2017-12-10 07:20:46 GMT 46.64212 5.97461 34,000 317 332 0
2017-12-10 07:20:33 GMT 46.62710 5.99475 34,000 316 325 0
2017-12-10 07:20:23 GMT 46.61582 6.01082 34,000 317 339 0
2017-12-10 07:20:06 GMT 46.59628 6.03731 34,000 316 342 0
2017-12-10 07:19:55 GMT 46.58405 6.05404 33,975 316 342 0
We lost coverage of the aircraft here for a total of 6 minutes
2017-12-10 07:14:03 GMT 46.17696 6.60854 34,000 315 353 0
2017-12-10 07:13:57 GMT 46.17105 6.61727 33,975 318 372 -60
2017-12-10 07:13:46 GMT 46.15695 6.63553 33,975 316 345 0
2017-12-10 07:13:36 GMT 46.14533 6.65136 34,000 318 341 0
2017-12-10 07:13:27 GMT 46.13509 6.66515 34,000 319 328 0
2017-12-10 07:13:15 GMT 46.12070 6.68321 34,000 317 349 -60
2017-12-10 07:13:07 GMT 46.11098 6.69613 34,000 317 352 -120
2017-12-10 07:12:57 GMT 46.09963 6.71207 34,025 319 337 120
2017-12-10 07:12:45 GMT 46.08562 6.72886 34,025 316 355 0
2017-12-10 07:12:37 GMT 46.07560 6.74262 33,975 316 333 0
2017-12-10 07:11:54 GMT 46.02757 6.80848 34,000 317 345 60
2017-12-10 07:11:46 GMT 46.01731 6.82152 34,000 316 340 0
2017-12-10 07:11:35 GMT 46.00525 6.83811 34,025 317 344 0
2017-12-10 07:11:06 GMT 45.97150 6.88384 33,950 318 334 -240
2017-12-10 07:10:57 GMT 45.96060 6.89694 34,025 313 314 1020
2017-12-10 07:10:46 GMT 45.94747 6.91418 34,025 316 302 840
2017-12-10 07:10:36 GMT 45.93712 6.92882 33,800 317 339 1200
2017-12-10 07:10:27 GMT 45.92698 6.94374 33,575 317 335 780
2017-12-10 07:10:14 GMT 45.91203 6.96328 33,575 318 343 1620
2017-12-10 07:09:55 GMT 45.88958 6.99229 33,125 317 364 2700
2017-12-10 07:07:16 GMT 45.69749 7.24125 28,375 317 364 2700
2017-12-10 07:07:07 GMT 45.68604 7.25601 28,375 317 367 0
2017-12-10 07:06:57 GMT 45.67373 7.27192 27,825 318 336 0

Making use of Plane Finder data

You are free to use the raw flight data, aircraft information and images provided in this report for your own purposes provided the data is correctly attributed to Plane Finder. We ask that you please credit Plane Finder and link to planefinder.net in close proximity to the content.

Optionally one of the following logos (no smaller then 150x24px) can be used and must link to planefinder.net

Embedding the Plane Finder map

You are welcome to embed the Plane Finder playback map on your website to offer visitors a more interactive experience. We suggest using the following HTML code:

<iframe src="//planefinder.net/data/report/0B4011-YR-BAQ-7700-squawk-2017-12-10/map" width="800" height="600" seamless="seamless"></iframe>

Where our data comes from

Plane Finder has a global network of data feeds and antenna radars that receive data broadcast directly from aircraft. The primary technologies used are ADS-B and MLAT. We also show feeds from the FAA and a FLARM glider feed.

Click here to find out more about the Plane Finder network.

How we collect our data